Time,TemperatureF,DewpointF,PressureIn,WindDirection,WindDirectionDegrees,WindSpeedMPH,WindSpeedGustMPH,Humidity,HourlyPrecipIn,Conditions,Clouds,dailyrainin,SolarRadiationWatts/m^2,SoftwareType,DateUTC
2013-07-28 00:06:00,64.2,62.0,29.95,South,175,0.0,-999.0,93,-99.99,,,0.01,0,weatherlink.com 1.10,2013-07-28 04:06:00,
2013-07-28 00:21:00,63.9,62.0,29.95,South,175,0.0,-999.0,94,-99.99,,,0.01,0,weatherlink.com 1.10,2013-07-28 04:21:00,
2013-07-28 00:51:00,63.0,62.0,29.95,South,175,0.0,-999.0,95,-99.99,,,0.01,0,weatherlink.com 1.10,2013-07-28 04:51:00,
2013-07-28 01:06:00,62.7,61.0,29.95,South,175,0.0,-999.0,95,-99.99,,,0.01,0,weatherlink.com 1.10,2013-07-28 05:06:00,
2013-07-28 01:21:00,62.3,61.0,29.95,South,175,0.0,-999.0,95,-99.99,,,0.01,0,weatherlink.com 1.10,2013-07-28 05:21:00,
2013-07-28 01:36:00,62.2,61.0,29.95,South,175,0.0,-999.0,95,-99.99,,,0.01,0,weatherlink.com 1.10,2013-07-28 05:36:00,
2013-07-28 02:06:00,61.7,61.0,29.95,South,175,0.0,-999.0,96,-99.99,,,0.01,0,weatherlink.com 1.10,2013-07-28 06:06:00,
2013-07-28 02:21:00,61.6,61.0,29.94,South,175,0.0,-999.0,96,-99.99,,,0.01,0,weatherlink.com 1.10,2013-07-28 06:21:00,
2013-07-28 02:36:00,61.6,61.0,29.94,South,175,0.0,-999.0,96,-99.99,,,0.01,0,weatherlink.com 1.10,2013-07-28 06:36:00,
2013-07-28 02:51:00,61.8,61.0,29.94,South,175,0.0,-999.0,96,-99.99,,,0.00,0,weatherlink.com 1.10,2013-07-28 06:51:00,
2013-07-28 03:21:00,62.3,61.0,29.93,South,175,0.0,-999.0,96,-99.99,,,0.00,0,weatherlink.com 1.10,2013-07-28 07:21:00,
2013-07-28 03:36:00,62.4,62.0,29.94,South,175,0.0,-999.0,97,-99.99,,,0.00,0,weatherlink.com 1.10,2013-07-28 07:36:00,
2013-07-28 04:21:00,62.5,62.0,29.94,South,175,0.0,-999.0,97,-99.99,,,0.00,0,weatherlink.com 1.10,2013-07-28 08:21:00,
2013-07-28 04:36:00,62.4,62.0,29.94,South,175,0.0,-999.0,97,-99.99,,,0.00,0,weatherlink.com 1.10,2013-07-28 08:36:00,
2013-07-28 05:06:00,62.2,61.0,29.94,South,175,0.0,-999.0,97,-99.99,,,0.00,0,weatherlink.com 1.10,2013-07-28 09:06:00,
2013-07-28 05:21:00,62.2,61.0,29.93,South,175,0.0,-999.0,97,-99.99,,,0.00,0,weatherlink.com 1.10,2013-07-28 09:21:00,
2013-07-28 05:36:00,62.6,62.0,29.94,South,175,0.0,-999.0,97,-99.99,,,0.00,0,weatherlink.com 1.10,2013-07-28 09:36:00,
2013-07-28 05:51:00,62.8,62.0,29.94,South,175,0.0,-999.0,97,-99.99,,,0.00,0,weatherlink.com 1.10,2013-07-28 09:51:00,
2013-07-28 06:06:00,63.1,62.0,29.94,South,175,0.0,-999.0,97,-99.99,,,0.00,5,weatherlink.com 1.10,2013-07-28 10:06:00,
2013-07-28 06:51:00,64.0,63.0,29.95,South,175,0.0,-999.0,97,-99.99,,,0.00,30,weatherlink.com 1.10,2013-07-28 10:51:00,
2013-07-28 07:06:00,64.5,64.0,29.96,South,175,0.0,-999.0,97,-99.99,,,0.00,32,weatherlink.com 1.10,2013-07-28 11:06:00,
2013-07-28 07:21:00,65.1,64.0,29.97,South,175,1.0,-999.0,97,-99.99,,,0.00,32,weatherlink.com 1.10,2013-07-28 11:21:00,
2013-07-28 07:36:00,65.4,65.0,29.98,South,175,0.0,-999.0,98,-99.99,,,0.00,46,weatherlink.com 1.10,2013-07-28 11:36:00,
2013-07-28 07:51:00,66.1,66.0,29.97,South,175,0.0,-999.0,98,-99.99,,,0.00,77,weatherlink.com 1.10,2013-07-28 11:51:00,
2013-07-28 08:21:00,67.1,66.0,29.96,SE,141,0.0,-999.0,97,-99.99,,,0.00,253,weatherlink.com 1.10,2013-07-28 12:21:00,
2013-07-28 08:36:00,67.8,67.0,29.97,South,185,0.0,-999.0,97,-99.99,,,0.00,204,weatherlink.com 1.10,2013-07-28 12:36:00,
2013-07-28 09:06:00,69.0,68.0,29.96,SE,146,0.0,-999.0,95,-99.99,,,0.00,169,weatherlink.com 1.10,2013-07-28 13:06:00,
2013-07-28 09:21:00,69.5,68.0,29.96,SE,146,0.0,-999.0,93,-99.99,,,0.00,190,weatherlink.com 1.10,2013-07-28 13:21:00,
2013-07-28 09:36:00,70.5,68.0,29.96,SE,143,0.0,-999.0,91,-99.99,,,0.00,301,weatherlink.com 1.10,2013-07-28 13:36:00,
2013-07-28 09:51:00,71.4,68.0,29.95,South,171,0.0,-999.0,88,-99.99,,,0.00,260,weatherlink.com 1.10,2013-07-28 13:51:00,
2013-07-28 10:06:00,71.5,68.0,29.95,South,175,1.0,-999.0,87,-99.99,,,0.00,269,weatherlink.com 1.10,2013-07-28 14:06:00,
2013-07-28 10:21:00,72.2,68.0,29.95,SSE,160,7.0,-999.0,85,-99.99,,,0.00,559,weatherlink.com 1.10,2013-07-28 14:21:00,
2013-07-28 10:51:00,75.0,68.0,29.94,ESE,114,6.0,-999.0,79,-99.99,,,0.00,594,weatherlink.com 1.10,2013-07-28 14:51:00,
2013-07-28 11:06:00,74.5,67.0,29.94,East,95,1.0,-999.0,78,-99.99,,,0.00,489,weatherlink.com 1.10,2013-07-28 15:06:00,
2013-07-28 11:36:00,76.7,68.0,29.94,SE,145,4.0,-999.0,74,-99.99,,,0.00,457,weatherlink.com 1.10,2013-07-28 15:36:00,
2013-07-28 11:51:00,76.9,68.0,29.94,SSE,153,1.0,-999.0,73,-99.99,,,0.00,457,weatherlink.com 1.10,2013-07-28 15:51:00,
2013-07-28 12:06:00,77.0,68.0,29.94,SSW,213,3.0,-999.0,73,-99.99,,,0.00,390,weatherlink.com 1.10,2013-07-28 16:06:00,
2013-07-28 12:36:00,76.9,68.0,29.95,South,186,0.0,-999.0,73,-99.99,,,0.00,250,weatherlink.com 1.10,2013-07-28 16:36:00,
2013-07-28 13:06:00,77.4,69.0,29.94,WSW,237,1.0,-999.0,75,-99.99,,,0.00,399,weatherlink.com 1.10,2013-07-28 17:06:00,
2013-07-28 13:21:00,78.2,69.0,29.94,West,269,3.0,-999.0,73,-99.99,,,0.00,638,weatherlink.com 1.10,2013-07-28 17:21:00,
2013-07-28 13:36:00,78.5,68.0,29.94,SSE,162,2.0,-999.0,71,-99.99,,,0.00,568,weatherlink.com 1.10,2013-07-28 17:36:00,
2013-07-28 13:51:00,79.0,68.0,29.94,South,190,0.0,-999.0,70,-99.99,,,0.00,411,weatherlink.com 1.10,2013-07-28 17:51:00,
2013-07-28 14:06:00,78.3,68.0,29.93,South,173,2.0,-999.0,70,-99.99,,,0.00,313,weatherlink.com 1.10,2013-07-28 18:06:00,
2013-07-28 14:21:00,78.0,68.0,29.93,SSW,207,4.0,-999.0,72,-99.99,,,0.00,250,weatherlink.com 1.10,2013-07-28 18:21:00,
2013-07-28 14:36:00,76.4,68.0,29.93,South,189,6.0,-999.0,75,-99.99,,,0.00,199,weatherlink.com 1.10,2013-07-28 18:36:00,
2013-07-28 14:51:00,76.0,68.0,29.92,WNW,284,1.0,-999.0,77,-99.99,,,0.00,251,weatherlink.com 1.10,2013-07-28 18:51:00,
2013-07-28 15:06:00,75.8,69.0,29.92,South,189,6.0,-999.0,78,-99.99,,,0.00,262,weatherlink.com 1.10,2013-07-28 19:06:00,
2013-07-28 15:21:00,75.2,69.0,29.91,SW,225,2.0,-999.0,80,-99.99,,,0.00,220,weatherlink.com 1.10,2013-07-28 19:21:00,
2013-07-28 16:06:00,75.4,69.0,29.92,South,182,3.0,-999.0,79,-99.99,,,0.00,304,weatherlink.com 1.10,2013-07-28 20:06:00,
2013-07-28 16:21:00,75.9,69.0,29.92,SW,227,3.0,-999.0,78,-99.99,,,0.00,225,weatherlink.com 1.10,2013-07-28 20:21:00,
2013-07-28 16:36:00,75.9,68.0,29.91,South,174,0.0,-999.0,77,-99.99,,,0.00,221,weatherlink.com 1.10,2013-07-28 20:36:00,
2013-07-28 16:51:00,75.9,67.0,29.92,South,178,4.0,-999.0,74,-99.99,,,0.00,279,weatherlink.com 1.10,2013-07-28 20:51:00,
2013-07-28 17:06:00,76.1,68.0,29.93,SSW,200,3.0,-999.0,75,-99.99,,,0.00,162,weatherlink.com 1.10,2013-07-28 21:06:00,
2013-07-28 17:36:00,75.9,68.0,29.93,South,182,0.0,-999.0,77,-99.99,,,0.00,134,weatherlink.com 1.10,2013-07-28 21:36:00,
2013-07-28 17:51:00,75.7,68.0,29.93,SE,142,1.0,-999.0,77,-99.99,,,0.00,100,weatherlink.com 1.10,2013-07-28 21:51:00,
2013-07-28 18:06:00,75.2,68.0,29.94,SSW,207,0.0,-999.0,79,-99.99,,,0.00,35,weatherlink.com 1.10,2013-07-28 22:06:00,
2013-07-28 18:21:00,74.7,68.0,29.95,SSW,207,0.0,-999.0,79,-99.99,,,0.00,25,weatherlink.com 1.10,2013-07-28 22:21:00,
2013-07-28 18:36:00,74.4,68.0,29.95,SSE,164,0.0,-999.0,81,-99.99,,,0.00,11,weatherlink.com 1.10,2013-07-28 22:36:00,
2013-07-28 18:51:00,71.9,68.0,29.94,South,189,0.0,-999.0,87,-99.99,,,0.07,7,weatherlink.com 1.10,2013-07-28 22:51:00,
2013-07-28 19:06:00,69.7,67.0,29.91,SE,142,0.0,-999.0,91,-99.99,,,0.11,19,weatherlink.com 1.10,2013-07-28 23:06:00,
2013-07-28 19:21:00,69.3,67.0,29.94,SW,230,0.0,-999.0,93,-99.99,,,0.11,11,weatherlink.com 1.10,2013-07-28 23:21:00,
2013-07-28 19:36:00,69.0,67.0,29.95,SW,230,0.0,-999.0,94,-99.99,,,0.11,5,weatherlink.com 1.10,2013-07-28 23:36:00,
2013-07-28 19:51:00,68.9,67.0,29.94,SW,230,0.0,-999.0,94,-99.99,,,0.12,0,weatherlink.com 1.10,2013-07-28 23:51:00,
2013-07-28 20:06:00,68.8,67.0,29.94,SW,230,0.0,-999.0,95,-99.99,,,0.12,5,weatherlink.com 1.10,2013-07-29 00:06:00,
2013-07-28 20:21:00,68.5,67.0,29.94,SW,230,0.0,-999.0,95,-99.99,,,0.12,0,weatherlink.com 1.10,2013-07-29 00:21:00,
2013-07-28 20:36:00,68.5,67.0,29.93,SW,230,0.0,-999.0,96,-99.99,,,0.12,0,weatherlink.com 1.10,2013-07-29 00:36:00,
2013-07-28 20:51:00,68.4,67.0,29.93,SW,230,0.0,-999.0,96,-99.99,,,0.12,0,weatherlink.com 1.10,2013-07-29 00:51:00,
2013-07-28 21:06:00,68.3,67.0,29.93,SW,230,0.0,-999.0,96,-99.99,,,0.12,0,weatherlink.com 1.10,2013-07-29 01:06:00,
2013-07-28 21:21:00,68.2,67.0,29.95,SW,230,0.0,-999.0,96,-99.99,,,0.12,0,weatherlink.com 1.10,2013-07-29 01:21:00,
2013-07-28 21:51:00,68.2,67.0,29.95,SW,230,0.0,-999.0,96,-99.99,,,0.12,0,weatherlink.com 1.10,2013-07-29 01:51:00,
2013-07-28 22:06:00,68.1,67.0,29.95,SW,230,0.0,-999.0,96,-99.99,,,0.12,0,weatherlink.com 1.10,2013-07-29 02:06:00,
2013-07-28 22:21:00,67.9,67.0,29.95,SW,230,0.0,-999.0,97,-99.99,,,0.12,0,weatherlink.com 1.10,2013-07-29 02:21:00,
2013-07-28 22:36:00,67.8,67.0,29.96,SW,230,0.0,-999.0,97,-99.99,,,0.12,0,weatherlink.com 1.10,2013-07-29 02:36:00,
2013-07-28 23:06:00,67.9,67.0,29.96,SW,230,0.0,-999.0,97,-99.99,,,0.12,0,weatherlink.com 1.10,2013-07-29 03:06:00,